This is the latest recevied weather packets stored in our database for station/object N6RDS-8. If no packets are shown the sender has not sent any weather packets the latest 1 day(s).
| Time | Temp. | Humidity | Pressure | Rain* | Wind** | Luminosity | Snow |
|---|---|---|---|---|---|---|---|
| 1778035021 | 17.22° C | 38% | 1015.7 hPa | 0 mm | 1.34 m/s, 173° | 0 W/m² | - |
| 1778034719 | 17.78° C | 37% | 1015.5 hPa | 0 mm | 1.79 m/s, 253° | 0 W/m² | - |
| 1778034416 | 17.78° C | 37% | 1015.6 hPa | 0 mm | 0.89 m/s, 204° | 0 W/m² | - |
| 1778034113 | 17.78° C | 37% | 1015.2 hPa | 0 mm | 1.79 m/s, 305° | 0 W/m² | - |
| 1778033811 | 17.78° C | 36% | 1015.2 hPa | 0 mm | 1.34 m/s, 211° | 0 W/m² | - |
| 1778033508 | 18.33° C | 34% | 1015.1 hPa | 0 mm | 1.34 m/s, 261° | 1 W/m² | - |
| 1778033200 | 18.89° C | 33% | 1015 hPa | 0 mm | 1.34 m/s, 201° | 2 W/m² | - |
| 1778032897 | 18.89° C | 34% | 1014.9 hPa | 0 mm | 1.79 m/s, 209° | 4 W/m² | - |
| 1778032595 | 19.44° C | 34% | 1014.9 hPa | 0 mm | 0.89 m/s, 131° | 7 W/m² | - |
| 1778032292 | 19.44° C | 34% | 1014.9 hPa | 0 mm | 0.89 m/s, 223° | 10 W/m² | - |
| 1778031990 | 20° C | 33% | 1014.8 hPa | 0 mm | 0.45 m/s, 94° | 13 W/m² | - |
| 1778031685 | 20° C | 33% | 1014.8 hPa | 0 mm | 1.34 m/s, 175° | 16 W/m² | - |
| 1778031383 | 20° C | 33% | 1014.5 hPa | 0 mm | 1.79 m/s, 251° | 19 W/m² | - |
| 1778031079 | 20.56° C | 34% | 1014.6 hPa | 0 mm | 0.45 m/s, 228° | 23 W/m² | - |
| 1778030775 | 20.56° C | 33% | 1014.6 hPa | 0 mm | 1.79 m/s, 224° | 26 W/m² | - |
| 1778030472 | 20.56° C | 33% | 1014.5 hPa | 0 mm | 1.79 m/s, 250° | 30 W/m² | - |
| 1778030170 | 21.11° C | 32% | 1014.5 hPa | 0 mm | 1.79 m/s, 201° | 36 W/m² | - |
| 1778029866 | 21.11° C | 32% | 1014.3 hPa | 0 mm | 1.34 m/s, 177° | 37 W/m² | - |
| 1778029560 | 21.11° C | 32% | 1014.3 hPa | 0 mm | 2.68 m/s, 181° | 47 W/m² | - |
| 1778029256 | 21.11° C | 31% | 1014.2 hPa | 0 mm | 1.34 m/s, 145° | 59 W/m² | - |
| 1778028953 | 21.67° C | 31% | 1014.2 hPa | 0 mm | 0.89 m/s, 218° | 55 W/m² | - |
| 1778028649 | 21.11° C | 32% | 1014.2 hPa | 0 mm | 1.34 m/s, 247° | 109 W/m² | - |
| 1778028346 | 21.67° C | 31% | 1013.9 hPa | 0 mm | 2.68 m/s, 212° | 45 W/m² | - |
| 1778028047 | 22.22° C | 31% | 1014.1 hPa | 0 mm | 3.13 m/s, 214° | 153 W/m² | - |
| 1778027739 | 22.22° C | 31% | 1014 hPa | 0 mm | 1.79 m/s, 242° | 170 W/m² | - |
* Rain latest hour (hover to see other rain measurements)
** Current wind speed in m/s (hover to see current wind gust speed)